Terminal Aerodrome Forecast
Issued by NWS Pocatello, ID

Home | Current Version | Previous Version | Text Only | Print | Product List | Glossary On
Versions: 1 2 3 4 5 6 7 8 9 10 11 12 13 14 15 16
000
FTUS45 KPIH 192300
TAFBYI
TAF
KBYI 192320Z 2000/2024 20010G15KT P6SM VCTS SCT080CB BKN100
     FM200300 VRB05KT P6SM VCSH SCT070 BKN100
     FM201800 26011KT P6SM VCTS SCT100CB=

USA.gov is the U.S. government's official web portal to all federal, state and local government web resources and services.